Ana Sayfa
METAR-TAF:

METAR-TAF

Havaalanları :

Wakefield Municipal Airport

Wakefield, Virginia, Amerika Birleşik Devletleri

Enlem: 36-58-53N, Boylam: 077-00-04W, yükseklik: 34 m

Güncel hava durumu gözlemi

Rapor saat 12:54 UTC de 16 dakika önce yapıldı.
Rüzgar batı/güneybatıdan 5 kt
Sıcaklık 27°C
Nem 79%
Basınç 1015 hPa
Görüş mesafesi: 16.1 km
Açık gökyüzü

METAR: KAKQ 191254Z AUTO 24005KT 10SM CLR 27/23 A2998 RMK AO2 SLP149 T02720228

Saat: 09:10 (13:10 UTC)


TAF: eksik

4.000'den fazla havaalanı için hava durumu gözlemleri ve tahminleri (METAR ve TAF raporları).

Kullanılabilir istasyonlar harita üzerinde sarı ve kırmızı noktalarla gösterilir.

İstasyonun adını görmek için fareyi noktanın üzerinde gezdirin.

Sonrasında hava gözlem ve tahminlerini görmek için tıklayın.

Haritayı değiştirmek için: yaklaştırmak için siyah artı işaretli yeşil düğmeye ve uzaklaştırmak için de eksi işaretli düğmeye hızla tıklayın; bitişik haritalar için yeşil okları kullanın.


METAR-TAF: